Durbuy, Belgium
Current Conditions -  °F | °C
As of 3:20 PM on Thursday 29 Jan 2015 (Local Time) from EBLG Reporting Station
Light Snow Light Snow  
Wind Chill: 26°   Ceiling: 2000
Heat Index: 36°   Visibility: 5mi
Dew Point: 34°   Wind: 16mph
Humidity: 93%   Direction: 200°SSW
Pressure: 29"   Gusts: NA
Location:  50.35°N, 5.46°E
Report Text: EBLG 291420Z 20014KT 8000 -RASN SCT007 BKN020 02/01 Q0982 TEMPO 5000 SHSNRA SCT006 SCT013
Loading
Personal Weather Stations






























Interactive Weather Map New forecast layout! Learn more

10-Day Weather Forecast

Advertisements
Track Severe Weather on mobile